Time;durP1;ratioP1;P1;durP2;ratioP2;P2;SDS_P1;SDS_P2;PMS_P1;PMS_P2;Temp;Humidity;BMP_temperature;BMP_pressure;BME280_temperature;BME280_humidity;BME280_pressure;Samples;Min_cycle;Max_cycle;Signal;HPM_P1;HPM_P2
2022/04/17 00:01:49;;;;;;;4.35;3.63;;;;;;;-140.79;100.00;63287.88;5062432;28;20020;-58
2022/04/17 00:04:15;;;;;;;4.63;3.25;;;;;;;-140.79;100.00;63287.88;5063330;28;20032;-58
2022/04/17 00:06:41;;;;;;;3.85;3.35;;;;;;;-140.79;100.00;63287.88;5066461;28;20028;-56
2022/04/17 00:09:07;;;;;;;3.35;2.83;;;;;;;-140.79;100.00;63287.88;5067158;28;20119;-56
2022/04/17 00:11:35;;;;;;;4.60;3.25;;;;;;;-140.79;100.00;63287.88;5067068;28;20127;-57
2022/04/17 00:14:01;;;;;;;3.53;2.83;;;;;;;-140.79;100.00;63287.88;5067163;28;20081;-56
2022/04/17 00:16:26;;;;;;;3.40;2.95;;;;;;;-140.79;100.00;63287.88;5058861;28;20462;-56
2022/04/17 00:18:52;;;;;;;4.45;3.20;;;;;;;-140.79;100.00;63287.88;5058714;28;20031;-59
2022/04/17 00:21:17;;;;;;;3.80;2.80;;;;;;;-140.79;100.00;63287.88;5067169;28;20028;-59
2022/04/17 00:23:44;;;;;;;4.32;3.05;;;;;;;-140.79;100.00;63287.88;5067117;28;20028;-57
2022/04/17 00:26:10;;;;;;;3.50;3.03;;;;;;;-140.79;100.00;63287.88;5066570;28;20072;-57
2022/04/17 00:28:35;;;;;;;4.18;3.30;;;;;;;-140.79;100.00;63287.88;5067358;28;20028;-59
2022/04/17 00:31:01;;;;;;;4.05;3.15;;;;;;;-140.79;100.00;63287.88;5067156;28;20040;-58
2022/04/17 00:33:26;;;;;;;3.13;2.67;;;;;;;-140.79;100.00;63287.88;5067186;28;20059;-59
2022/04/17 00:35:52;;;;;;;3.97;3.20;;;;;;;-140.79;100.00;63287.88;5063727;28;20025;-59
2022/04/17 00:38:17;;;;;;;4.32;3.00;;;;;;;-140.79;100.00;63287.88;5053592;28;20039;-59
2022/04/17 00:40:43;;;;;;;5.00;3.20;;;;;;;-140.79;100.00;63287.88;5067099;28;20044;-58
2022/04/17 00:43:29;;;;;;;3.60;2.97;;;;;;;-140.79;100.00;63287.88;5066610;28;20036;-59
2022/04/17 00:45:54;;;;;;;3.22;2.83;;;;;;;-140.79;100.00;63287.88;5066994;28;20186;-59
2022/04/17 00:48:20;;;;;;;4.00;3.40;;;;;;;-140.79;100.00;63287.88;5065126;28;20036;-57
2022/04/17 00:50:46;;;;;;;4.18;3.30;;;;;;;-140.79;100.00;63287.88;5066800;28;20029;-58
2022/04/17 00:53:12;;;;;;;3.30;2.72;;;;;;;-140.79;100.00;63287.88;5066364;28;20039;-58
2022/04/17 00:55:38;;;;;;;4.25;3.25;;;;;;;-140.79;100.00;63287.88;5064142;28;20454;-59
2022/04/17 00:58:04;;;;;;;3.03;2.58;;;;;;;-140.79;100.00;63287.88;5051530;28;20029;-58
2022/04/17 01:00:29;;;;;;;3.83;3.30;;;;;;;-140.79;100.00;63287.88;5065657;28;20028;-58
2022/04/17 01:02:55;;;;;;;3.95;2.95;;;;;;;-140.79;100.00;63287.88;5082045;28;20028;-58
2022/04/17 01:05:20;;;;;;;3.45;2.90;;;;;;;-140.79;100.00;63287.88;5066745;28;20040;-58
2022/04/17 01:07:46;;;;;;;3.72;2.97;;;;;;;-140.79;100.00;63287.88;5066126;28;20029;-58
2022/04/17 01:10:11;;;;;;;3.88;3.00;;;;;;;-140.79;100.00;63287.88;5066365;28;20029;-58
2022/04/17 01:12:37;;;;;;;3.72;2.88;;;;;;;-140.79;100.00;63287.88;5048515;28;20033;-59
2022/04/17 01:15:03;;;;;;;3.45;2.63;;;;;;;-140.79;100.00;63287.88;5066396;28;20032;-57
2022/04/17 01:17:28;;;;;;;3.33;2.80;;;;;;;-140.79;100.00;63287.88;5049537;28;20308;-59
2022/04/17 01:19:54;;;;;;;4.07;3.20;;;;;;;-140.79;100.00;63287.88;5065884;28;20514;-56
2022/04/17 01:22:19;;;;;;;3.10;2.70;;;;;;;-140.79;100.00;63287.88;5081735;28;20040;-58
2022/04/17 01:27:30;;;;;;;4.28;3.10;;;;;;;-140.79;100.00;63287.88;5066340;28;20047;-58
2022/04/17 01:29:55;;;;;;;4.38;3.13;;;;;;;-140.79;100.00;63287.88;5065912;28;20051;-58
2022/04/17 01:32:21;;;;;;;3.45;3.00;;;;;;;-140.79;100.00;63287.88;5058559;28;20523;-56
2022/04/17 01:34:46;;;;;;;3.30;3.00;;;;;;;-140.79;100.00;63287.88;5056492;28;20017;-58
2022/04/17 01:37:13;;;;;;;3.10;2.63;;;;;;;-140.79;100.00;63287.88;5050088;28;20029;-56
2022/04/17 01:39:39;;;;;;;3.38;3.08;;;;;;;-140.79;100.00;63287.88;5062132;28;20040;-58
2022/04/17 01:42:04;;;;;;;3.20;2.65;;;;;;;-140.79;100.00;63287.88;5065663;28;20479;-58
2022/04/17 01:44:30;;;;;;;3.60;2.78;;;;;;;-140.79;100.00;63287.88;5066059;28;20035;-57
2022/04/17 01:46:56;;;;;;;3.10;2.80;;;;;;;-140.79;100.00;63287.88;5065650;28;20463;-56
2022/04/17 01:49:21;;;;;;;3.10;2.80;;;;;;;-140.79;100.00;63287.88;5047658;28;20032;-56
2022/04/17 01:51:47;;;;;;;4.85;3.08;;;;;;;-140.79;100.00;63287.88;5065551;28;20043;-56
2022/04/17 01:54:15;;;;;;;3.45;3.00;;;;;;;-140.79;100.00;63287.88;5065585;28;20032;-57
2022/04/17 01:56:40;;;;;;;3.50;2.70;;;;;;;-140.79;100.00;63287.88;5055743;28;20638;-58
2022/04/17 01:59:06;;;;;;;3.47;2.80;;;;;;;-140.79;100.00;63287.88;5058498;28;20032;-58
2022/04/17 02:01:35;;;;;;;3.60;2.80;;;;;;;-140.79;100.00;63287.88;5065462;28;20749;-58
2022/04/17 02:04:01;;;;;;;3.22;2.65;;;;;;;-140.79;100.00;63287.88;5065446;28;20031;-58
2022/04/17 02:06:26;;;;;;;3.42;2.90;;;;;;;-140.79;100.00;63287.88;5065026;28;20048;-58
2022/04/17 02:08:52;;;;;;;3.30;2.95;;;;;;;-140.79;100.00;63287.88;5065374;28;20037;-59
2022/04/17 02:11:18;;;;;;;3.20;2.85;;;;;;;-140.79;100.00;63287.88;5065387;28;20032;-58
2022/04/17 02:13:45;;;;;;;3.17;2.88;;;;;;;-140.79;100.00;63287.88;5065262;28;20106;-58
2022/04/17 02:16:11;;;;;;;3.45;3.03;;;;;;;-140.79;100.00;63287.88;5059508;28;20028;-57
2022/04/17 02:18:36;;;;;;;4.00;3.10;;;;;;;-140.79;100.00;63287.88;5053722;28;20098;-56
2022/04/17 02:21:01;;;;;;;3.45;2.55;;;;;;;-140.79;100.00;63287.88;5065061;28;20517;-57
2022/04/17 02:23:27;;;;;;;3.03;2.70;;;;;;;-140.79;100.00;63287.88;5064828;28;20020;-58
2022/04/17 02:25:53;;;;;;;3.88;3.15;;;;;;;-140.79;100.00;63287.88;5063901;28;20723;-58
2022/04/17 02:28:18;;;;;;;2.75;2.45;;;;;;;-140.79;100.00;63287.88;5063690;28;20032;-58
2022/04/17 02:30:44;;;;;;;3.08;2.60;;;;;;;-140.79;100.00;63287.88;5064596;28;20062;-57
2022/04/17 02:33:10;;;;;;;3.22;2.60;;;;;;;-140.79;100.00;63287.88;5064785;28;20039;-58
2022/04/17 02:35:36;;;;;;;3.15;2.70;;;;;;;-140.79;100.00;63287.88;5063754;28;20040;-56
2022/04/17 02:38:01;;;;;;;3.25;2.72;;;;;;;-140.79;100.00;63287.88;5048473;28;20059;-56
2022/04/17 02:40:27;;;;;;;3.03;2.70;;;;;;;-140.79;100.00;63287.88;5064911;28;20098;-57
2022/04/17 02:42:53;;;;;;;3.00;2.42;;;;;;;-140.79;100.00;63287.88;5063473;28;20037;-58
2022/04/17 02:45:19;;;;;;;3.08;2.60;;;;;;;-140.79;100.00;63287.88;5064497;28;20501;-55
2022/04/17 02:47:46;;;;;;;3.42;2.60;;;;;;;-140.79;100.00;63287.88;5064541;28;20032;-58
2022/04/17 02:50:13;;;;;;;2.55;2.30;;;;;;;-140.79;100.00;63287.88;5064388;28;20029;-58
2022/04/17 02:52:38;;;;;;;2.60;2.40;;;;;;;-140.79;100.00;63287.88;5064429;28;20048;-57
2022/04/17 02:55:04;;;;;;;3.28;2.58;;;;;;;-140.79;100.00;63287.88;5052512;28;20044;-57
2022/04/17 02:57:33;;;;;;;2.70;2.50;;;;;;;-140.79;100.00;63287.88;5062444;28;20502;-58
2022/04/17 02:59:58;;;;;;;3.30;2.63;;;;;;;-140.79;100.00;63287.88;5046831;28;20029;-58
2022/04/17 03:07:52;;;;;;;2.97;2.65;;;;;;;-140.79;100.00;63287.88;5044328;28;20055;-57
2022/04/17 03:10:18;;;;;;;3.20;2.80;;;;;;;-140.79;100.00;63287.88;5044686;28;20480;-56
2022/04/17 03:12:43;;;;;;;3.00;2.65;;;;;;;-140.79;100.00;63287.88;5044342;28;20028;-57
2022/04/17 03:15:09;;;;;;;2.88;2.47;;;;;;;-140.79;100.00;63287.88;5044428;28;20033;-57
2022/04/17 03:17:34;;;;;;;3.00;2.60;;;;;;;-140.79;100.00;63287.88;5060759;28;20089;-56
2022/04/17 03:20:00;;;;;;;2.60;2.33;;;;;;;-140.79;100.00;63287.88;5064492;28;20025;-59
2022/04/17 03:22:25;;;;;;;2.95;2.45;;;;;;;-140.79;100.00;63287.88;5064470;28;20047;-58
2022/04/17 03:24:51;;;;;;;3.75;2.55;;;;;;;-140.79;100.00;63287.88;5064338;28;20419;-59
2022/04/17 03:27:16;;;;;;;2.97;2.65;;;;;;;-140.79;100.00;63287.88;5064358;28;20064;-56
2022/04/17 03:29:42;;;;;;;3.30;2.80;;;;;;;-140.79;100.00;63287.88;5064252;28;20447;-58
2022/04/17 03:32:07;;;;;;;3.22;2.90;;;;;;;-140.79;100.00;63287.88;5062042;28;20101;-59
2022/04/17 03:34:33;;;;;;;3.10;2.50;;;;;;;-140.79;100.00;63287.88;5066212;28;20029;-57
2022/04/17 03:36:58;;;;;;;3.13;2.42;;;;;;;-140.79;100.00;63287.88;5068626;28;20113;-58
2022/04/17 03:39:24;;;;;;;2.63;2.28;;;;;;;-140.79;100.00;63287.88;5071255;28;20033;-58
2022/04/17 03:41:50;;;;;;;2.83;2.40;;;;;;;-140.79;100.00;63287.88;5068871;28;20029;-58
2022/04/17 03:44:16;;;;;;;2.83;2.30;;;;;;;-140.79;100.00;63287.88;5050258;28;20041;-60
2022/04/17 03:46:42;;;;;;;2.83;2.50;;;;;;;-140.79;100.00;63287.88;5051997;28;20045;-59
2022/04/17 03:49:07;;;;;;;3.05;2.53;;;;;;;-140.79;100.00;63287.88;5051010;28;20095;-58
2022/04/17 03:51:33;;;;;;;3.35;2.60;;;;;;;-140.79;100.00;63287.88;5058836;28;20032;-58
2022/04/17 03:53:58;;;;;;;3.05;2.63;;;;;;;-140.79;100.00;63287.88;5064746;28;20025;-58
2022/04/17 03:56:24;;;;;;;2.60;2.40;;;;;;;-140.79;100.00;63287.88;5068654;28;20799;-59
2022/04/17 03:58:49;;;;;;;3.42;2.72;;;;;;;-140.79;100.00;63287.88;5066607;28;20033;-59
2022/04/17 04:01:14;;;;;;;2.40;2.17;;;;;;;-140.79;100.00;63287.88;5067646;28;20054;-59
2022/04/17 04:03:40;;;;;;;2.53;2.30;;;;;;;-140.79;100.00;63287.88;5066757;28;20028;-59
2022/04/17 04:06:05;;;;;;;3.05;2.47;;;;;;;-140.79;100.00;63287.88;5062169;28;20090;-59
2022/04/17 04:08:31;;;;;;;3.47;2.30;;;;;;;-140.79;100.00;63287.88;5048085;28;20032;-59
2022/04/17 04:10:56;;;;;;;3.05;2.40;;;;;;;-140.79;100.00;63287.88;5066893;28;20097;-59
2022/04/17 04:13:22;;;;;;;2.85;2.42;;;;;;;-140.79;100.00;63287.88;5066735;28;20078;-59
2022/04/17 04:15:47;;;;;;;3.30;2.63;;;;;;;-140.79;100.00;63287.88;5065185;28;20082;-58
2022/04/17 04:18:12;;;;;;;3.30;2.70;;;;;;;-140.79;100.00;63287.88;5066409;28;20036;-58
2022/04/17 04:20:38;;;;;;;2.90;2.50;;;;;;;-140.79;100.00;63287.88;5065932;28;20029;-58
2022/04/17 04:23:03;;;;;;;2.88;2.58;;;;;;;-140.79;100.00;63287.88;5066240;28;20024;-58
2022/04/17 04:25:29;;;;;;;2.90;2.60;;;;;;;-140.79;100.00;63287.88;5065797;28;20597;-60
2022/04/17 04:30:38;;;;;;;2.75;2.40;;;;;;;-140.79;100.00;63287.88;5066461;28;20116;-58
2022/04/17 04:33:04;;;;;;;2.72;2.40;;;;;;;-140.79;100.00;63287.88;5066390;28;20042;-58
2022/04/17 04:35:29;;;;;;;3.22;2.55;;;;;;;-140.79;100.00;63287.88;5066296;28;20092;-58
2022/04/17 04:37:56;;;;;;;2.65;2.42;;;;;;;-140.79;100.00;63287.88;5065365;28;20032;-58
2022/04/17 04:40:21;;;;;;;2.80;2.40;;;;;;;-140.79;100.00;63287.88;5081934;28;20536;-59
2022/04/17 04:42:47;;;;;;;2.67;2.30;;;;;;;-140.79;100.00;63287.88;5065773;28;20055;-58
2022/04/17 04:47:57;;;;;;;2.67;2.40;;;;;;;-140.79;100.00;63287.88;5066050;28;20125;-59
2022/04/17 04:50:22;;;;;;;2.97;2.40;;;;;;;-140.79;100.00;63287.88;5063494;28;20647;-58
2022/04/17 04:52:47;;;;;;;2.85;2.55;;;;;;;-140.79;100.00;63287.88;5061872;28;20580;-58
2022/04/17 04:55:13;;;;;;;3.17;2.38;;;;;;;-140.79;100.00;63287.88;5064350;28;20446;-58
2022/04/17 04:57:38;;;;;;;2.35;2.10;;;;;;;-140.79;100.00;63287.88;5065677;28;20021;-58
2022/04/17 05:00:05;;;;;;;2.63;2.40;;;;;;;-140.79;100.00;63287.88;5064852;28;20062;-61
2022/04/17 05:02:31;;;;;;;2.90;2.50;;;;;;;-140.79;100.00;63287.88;5062828;28;20043;-57
2022/04/17 05:04:56;;;;;;;2.85;2.60;;;;;;;-140.79;100.00;63287.88;5062311;28;20028;-58
2022/04/17 05:07:21;;;;;;;2.60;2.35;;;;;;;-140.79;100.00;63287.88;5062977;28;20033;-59
2022/04/17 05:09:47;;;;;;;2.80;2.50;;;;;;;-140.79;100.00;63287.88;5061514;28;20086;-57
2022/04/17 05:12:12;;;;;;;2.92;2.55;;;;;;;-140.79;100.00;63287.88;5061876;28;20032;-59
2022/04/17 05:14:41;;;;;;;2.92;2.60;;;;;;;-140.79;100.00;63287.88;5064264;28;20094;-59
2022/04/17 05:17:08;;;;;;;3.05;2.45;;;;;;;-140.79;100.00;63287.88;5063181;28;20024;-58
2022/04/17 05:19:33;;;;;;;3.13;2.50;;;;;;;-140.79;100.00;63287.88;5064351;28;20086;-59
2022/04/17 05:21:59;;;;;;;2.90;2.40;;;;;;;-140.79;100.00;63287.88;5061271;28;20695;-58
2022/04/17 05:24:25;;;;;;;2.90;2.33;;;;;;;-140.79;100.00;63287.88;5063331;28;20032;-58
2022/04/17 05:26:51;;;;;;;2.60;2.30;;;;;;;-140.79;100.00;63287.88;5078230;28;20559;-58
2022/04/17 05:29:17;;;;;;;2.80;2.50;;;;;;;-140.79;100.00;63287.88;5062996;28;20028;-59
2022/04/17 05:31:42;;;;;;;2.75;2.42;;;;;;;-140.79;100.00;63287.88;5073472;28;20039;-58
2022/04/17 05:34:08;;;;;;;2.67;2.45;;;;;;;-140.79;100.00;63287.88;5060662;28;20071;-59
2022/04/17 05:36:33;;;;;;;3.00;2.50;;;;;;;-140.79;100.00;63287.88;5053721;28;20036;-59
2022/04/17 05:38:58;;;;;;;5.18;2.33;;;;;;;-140.79;100.00;63287.88;5065780;28;20102;-58
2022/04/17 05:41:24;;;;;;;4.10;2.38;;;;;;;-140.79;100.00;63287.88;5065713;28;20072;-58
2022/04/17 05:43:49;;;;;;;2.72;2.35;;;;;;;-140.79;100.00;63287.88;5064305;28;20033;-58
2022/04/17 05:46:15;;;;;;;3.60;2.53;;;;;;;-140.79;100.00;63287.88;5065347;28;20039;-58
2022/04/17 05:48:40;;;;;;;2.78;2.30;;;;;;;-140.79;100.00;63287.88;5062130;28;20434;-58
2022/04/17 05:51:06;;;;;;;2.72;2.33;;;;;;;-140.79;100.00;63287.88;5063645;28;20029;-58
2022/04/17 05:53:32;;;;;;;2.70;2.20;;;;;;;-140.79;100.00;63287.88;5062558;28;20043;-59
2022/04/17 05:55:58;;;;;;;3.20;2.22;;;;;;;-140.79;100.00;63287.88;5064569;28;20028;-60
2022/04/17 05:58:23;;;;;;;2.20;1.85;;;;;;;-140.79;100.00;63287.88;5063895;28;20028;-58
2022/04/17 06:00:49;;;;;;;2.38;2.00;;;;;;;-140.79;100.00;63287.88;5063640;28;20039;-58
2022/04/17 06:03:15;;;;;;;3.00;2.30;;;;;;;-140.79;100.00;63287.88;5064557;28;20024;-58
2022/04/17 06:05:41;;;;;;;3.10;2.53;;;;;;;-140.79;100.00;63287.88;5048205;28;20041;-58
2022/04/17 06:08:07;;;;;;;2.20;2.00;;;;;;;-140.79;100.00;63287.88;5057369;28;20028;-58
2022/04/17 06:10:32;;;;;;;3.08;2.47;;;;;;;-140.79;100.00;63287.88;5051887;28;20063;-59
2022/04/17 06:12:58;;;;;;;2.88;2.42;;;;;;;-140.79;100.00;63287.88;5062659;28;20483;-59
2022/04/17 06:15:23;;;;;;;2.40;2.20;;;;;;;-140.79;100.00;63287.88;5063722;28;20028;-62
2022/04/17 06:17:49;;;;;;;2.63;1.92;;;;;;;-140.79;100.00;63287.88;5064262;28;20033;-58
2022/04/17 06:20:15;;;;;;;2.50;2.30;;;;;;;-140.79;100.00;63287.88;5063594;28;20039;-58
2022/04/17 06:22:40;;;;;;;2.80;2.50;;;;;;;-140.79;100.00;63287.88;5056321;28;20120;-58
2022/04/17 06:25:07;;;;;;;2.88;2.47;;;;;;;-140.79;100.00;63287.88;5044814;28;20029;-60
2022/04/17 06:27:43;;;;;;;2.90;2.30;;;;;;;-140.79;100.00;63287.88;5044821;28;20033;-56
2022/04/17 06:30:10;;;;;;;2.78;2.25;;;;;;;-140.79;100.00;63287.88;5048312;28;20182;-59
2022/04/17 06:32:40;;;;;;;2.47;2.15;;;;;;;-140.79;100.00;63287.88;5063457;28;20536;-57
2022/04/17 06:35:06;;;;;;;2.72;2.20;;;;;;;-140.79;100.00;63287.88;5054647;28;20786;-59
2022/04/17 06:37:31;;;;;;;2.35;1.95;;;;;;;-140.79;100.00;63287.88;5063851;28;20032;-59
2022/04/17 06:40:00;;;;;;;2.47;2.13;;;;;;;-140.79;100.00;63287.88;5060524;28;20618;-60
2022/04/17 06:42:25;;;;;;;2.20;2.00;;;;;;;-140.79;100.00;63287.88;5059819;28;20028;-57
2022/04/17 06:44:51;;;;;;;2.40;2.15;;;;;;;-140.79;100.00;63287.88;5070129;28;20051;-59
2022/04/17 06:47:17;;;;;;;2.45;2.03;;;;;;;-140.79;100.00;63287.88;5072375;28;20056;-56
2022/04/17 06:49:42;;;;;;;2.53;2.00;;;;;;;-140.79;100.00;63287.88;5063521;28;20692;-58
2022/04/17 06:52:08;;;;;;;3.17;2.22;;;;;;;-140.79;100.00;63287.88;5062032;28;20495;-57
2022/04/17 06:54:33;;;;;;;2.22;2.03;;;;;;;-140.79;100.00;63287.88;5061529;28;20028;-60
2022/04/17 06:56:58;;;;;;;2.33;2.00;;;;;;;-140.79;100.00;63287.88;5061292;28;20539;-59
2022/04/17 06:59:24;;;;;;;2.92;1.98;;;;;;;-140.79;100.00;63287.88;5064249;28;20441;-57
2022/04/17 07:01:49;;;;;;;2.67;2.22;;;;;;;-140.79;100.00;63287.88;5064630;28;20119;-58
2022/04/17 07:04:18;;;;;;;2.40;2.03;;;;;;;-140.79;100.00;63287.88;5064278;28;20039;-57
2022/04/17 07:06:44;;;;;;;2.40;2.00;;;;;;;-140.79;100.00;63287.88;5064421;28;20491;-59
2022/04/17 07:09:10;;;;;;;2.58;2.20;;;;;;;-140.79;100.00;63287.88;5064663;28;20064;-57
2022/04/17 07:11:35;;;;;;;2.50;2.17;;;;;;;-140.79;100.00;63287.88;5064505;28;20530;-57
2022/04/17 07:14:00;;;;;;;2.30;2.10;;;;;;;-140.79;100.00;63287.88;5045152;28;20086;-57
2022/04/17 07:16:26;;;;;;;2.42;2.08;;;;;;;-140.79;100.00;63287.88;5054923;28;20086;-59
2022/04/17 07:18:53;;;;;;;2.40;2.17;;;;;;;-140.79;100.00;63287.88;5068574;28;20039;-58
2022/04/17 07:21:19;;;;;;;2.40;2.03;;;;;;;-140.79;100.00;63287.88;5069162;28;20047;-59
2022/04/17 07:23:46;;;;;;;2.40;2.20;;;;;;;-140.79;100.00;63287.88;5067069;28;20487;-64
2022/04/17 07:26:12;;;;;;;2.38;2.03;;;;;;;-140.79;100.00;63287.88;5064842;28;20126;-59
2022/04/17 07:28:37;;;;;;;2.33;1.95;;;;;;;-140.79;100.00;63287.88;5080602;28;20522;-59
2022/04/17 07:31:03;;;;;;;2.10;1.90;;;;;;;-140.79;100.00;63287.88;5064315;28;20048;-60
2022/04/17 07:33:28;;;;;;;2.33;2.10;;;;;;;-140.79;100.00;63287.88;5065750;28;20501;-59
2022/04/17 07:35:54;;;;;;;2.92;2.17;;;;;;;-140.79;100.00;63287.88;5065175;28;20562;-59
2022/04/17 07:38:19;;;;;;;2.35;2.03;;;;;;;-140.79;100.00;63287.88;5066163;28;20028;-60
2022/04/17 07:40:45;;;;;;;3.00;2.13;;;;;;;-140.79;100.00;63287.88;5065199;28;20028;-59
2022/04/17 07:43:11;;;;;;;2.45;2.10;;;;;;;-140.79;100.00;63287.88;5055700;28;20124;-58
2022/04/17 07:45:37;;;;;;;2.30;2.00;;;;;;;-140.79;100.00;63287.88;5047366;28;20033;-60
2022/04/17 07:48:02;;;;;;;2.55;2.05;;;;;;;-140.79;100.00;63287.88;5060918;28;20025;-57
2022/04/17 07:50:29;;;;;;;2.58;2.10;;;;;;;-140.79;100.00;63287.88;5066422;28;20028;-59
2022/04/17 07:52:56;;;;;;;2.00;1.80;;;;;;;-140.79;100.00;63287.88;5067132;28;20658;-58
2022/04/17 07:55:22;;;;;;;2.78;2.05;;;;;;;-140.79;100.00;63287.88;5053644;28;20044;-59
2022/04/17 07:58:01;;;;;;;2.38;1.92;;;;;;;-140.79;100.00;63287.88;5063315;28;20029;-59
2022/04/17 08:00:32;;;;;;;2.53;2.20;;;;;;;-140.79;100.00;63287.88;5061028;28;20025;-58
2022/04/17 08:03:10;;;;;;;2.42;2.15;;;;;;;-140.79;100.00;63287.88;5048105;28;20056;-57
2022/04/17 08:05:38;;;;;;;2.53;2.03;;;;;;;-140.79;100.00;63287.88;5047941;28;20025;-56
2022/04/17 08:08:05;;;;;;;2.30;1.90;;;;;;;-140.79;100.00;63287.88;5046254;28;20025;-57
2022/04/17 08:10:30;;;;;;;2.15;1.85;;;;;;;-140.79;100.00;63287.88;5051849;28;20577;-61
2022/04/17 08:12:55;;;;;;;2.30;1.90;;;;;;;-140.79;100.00;63287.88;5057329;28;20029;-59
2022/04/17 08:15:21;;;;;;;2.13;1.88;;;;;;;-140.79;100.00;63287.88;5047561;28;20041;-58
2022/04/17 08:17:46;;;;;;;2.20;2.00;;;;;;;-140.79;100.00;63287.88;5064594;28;20040;-58
2022/04/17 08:20:12;;;;;;;3.38;2.08;;;;;;;-140.79;100.00;63287.88;5067473;28;20032;-59
2022/04/17 08:22:38;;;;;;;3.45;2.10;;;;;;;-140.79;100.00;63287.88;5067880;28;20090;-58
2022/04/17 08:25:04;;;;;;;2.50;2.03;;;;;;;-140.79;100.00;63287.88;5068141;28;20122;-57
2022/04/17 08:27:29;;;;;;;2.50;2.05;;;;;;;-140.79;100.00;63287.88;5070102;28;20032;-58
2022/04/17 08:29:55;;;;;;;4.38;2.15;;;;;;;-140.79;100.00;63287.88;5067212;28;20021;-58
2022/04/17 08:32:20;;;;;;;2.13;1.85;;;;;;;-140.79;100.00;63287.88;5046415;28;20648;-58
2022/04/17 08:34:46;;;;;;;2.95;2.00;;;;;;;-140.79;100.00;63287.88;5047304;28;20527;-57
2022/04/17 08:37:11;;;;;;;2.97;1.90;;;;;;;-140.79;100.00;63287.88;5059502;28;20043;-57
2022/04/17 08:39:36;;;;;;;2.58;1.83;;;;;;;-140.79;100.00;63287.88;5068250;28;20029;-57
2022/04/17 08:42:02;;;;;;;2.70;2.10;;;;;;;-140.79;100.00;63287.88;5068392;28;20106;-57
2022/04/17 08:44:28;;;;;;;3.08;2.08;;;;;;;-140.79;100.00;63287.88;5082778;28;20037;-58
2022/04/17 08:46:53;;;;;;;2.63;1.73;;;;;;;-140.79;100.00;63287.88;5067765;28;20032;-57
2022/04/17 08:49:19;;;;;;;3.35;2.28;;;;;;;-140.79;100.00;63287.88;5066204;28;20064;-57
2022/04/17 08:51:48;;;;;;;2.95;1.98;;;;;;;-140.79;100.00;63287.88;5065878;28;20114;-58
2022/04/17 08:54:16;;;;;;;2.80;2.30;;;;;;;-140.79;100.00;63287.88;5065132;28;20071;-57
2022/04/17 08:56:42;;;;;;;2.53;2.05;;;;;;;-140.79;100.00;63287.88;5046515;28;20028;-58
2022/04/17 08:59:07;;;;;;;2.72;2.00;;;;;;;-140.79;100.00;63287.88;5066140;28;20075;-58
2022/04/17 09:01:36;;;;;;;3.20;2.03;;;;;;;-140.79;100.00;63287.88;5064513;28;20021;-57
2022/04/17 09:04:04;;;;;;;3.20;2.20;;;;;;;-140.79;100.00;63287.88;5059715;28;20020;-58
2022/04/17 09:06:29;;;;;;;3.65;1.80;;;;;;;-140.79;100.00;63287.88;5062341;28;20029;-56
2022/04/17 09:09:05;;;;;;;2.60;2.10;;;;;;;-140.79;100.00;63287.88;5063339;28;20510;-58
2022/04/17 09:11:32;;;;;;;3.65;2.28;;;;;;;-140.79;100.00;63287.88;5064259;28;20147;-59
2022/04/17 09:13:58;;;;;;;2.85;2.13;;;;;;;-140.79;100.00;63287.88;5079354;28;20028;-57
2022/04/17 09:16:31;;;;;;;2.67;2.20;;;;;;;-140.79;100.00;63287.88;5064966;28;20078;-58
2022/04/17 09:18:57;;;;;;;3.13;2.17;;;;;;;-140.79;100.00;63287.88;5064776;28;20831;-57
2022/04/17 09:21:32;;;;;;;3.70;2.38;;;;;;;-140.79;100.00;63287.88;5064249;28;20024;-58
2022/04/17 09:24:17;;;;;;;3.30;2.20;;;;;;;-140.79;100.00;63287.88;5063125;28;20035;-61
2022/04/17 09:26:55;;;;;;;3.30;2.30;;;;;;;-140.79;100.00;63287.88;5063802;28;20531;-58
2022/04/17 09:29:27;;;;;;;4.65;2.40;;;;;;;-140.79;100.00;63287.88;5062866;28;20023;-59
2022/04/17 09:32:06;;;;;;;2.85;2.05;;;;;;;-140.79;100.00;63287.88;5061191;28;20097;-59
2022/04/17 09:34:55;;;;;;;3.33;2.50;;;;;;;-140.79;100.00;63287.88;5064999;28;20756;-58
2022/04/17 09:37:24;;;;;;;3.25;2.25;;;;;;;-140.79;100.00;63287.88;5066500;28;20071;-59
2022/04/17 09:39:50;;;;;;;4.57;2.28;;;;;;;-140.79;100.00;63287.88;5066432;28;20466;-58
2022/04/17 09:42:23;;;;;;;4.93;2.03;;;;;;;-140.79;100.00;63287.88;5068129;28;20027;-56
2022/04/17 09:44:54;;;;;;;3.00;1.85;;;;;;;-140.79;100.00;63287.88;5065949;28;20036;-57
2022/04/17 09:47:21;;;;;;;2.95;2.28;;;;;;;-140.79;100.00;63287.88;5069771;28;20028;-57
2022/04/17 09:49:52;;;;;;;2.92;2.10;;;;;;;-140.79;100.00;63287.88;5074936;28;20040;-58
2022/04/17 09:52:18;;;;;;;2.40;1.70;;;;;;;-140.79;100.00;63287.88;5071878;28;20046;-58
2022/04/17 09:54:44;;;;;;;3.05;2.17;;;;;;;-140.79;100.00;63287.88;5063924;28;20107;-58
2022/04/17 09:57:12;;;;;;;3.30;2.15;;;;;;;-140.79;100.00;63287.88;5076227;28;20040;-58
2022/04/17 09:59:37;;;;;;;3.47;2.25;;;;;;;-140.79;100.00;63287.88;5062622;28;20519;-57
2022/04/17 10:02:04;;;;;;;3.03;2.20;;;;;;;-140.79;100.00;63287.88;5060560;28;20036;-57
2022/04/17 10:04:30;;;;;;;2.92;2.20;;;;;;;-140.79;100.00;63287.88;5055891;28;20028;-58
2022/04/17 10:06:59;;;;;;;3.05;2.03;;;;;;;-140.79;100.00;63287.88;5053951;28;20035;-55
2022/04/17 10:09:25;;;;;;;4.60;2.30;;;;;;;-140.79;100.00;63287.88;5044196;28;20021;-56
2022/04/17 10:11:51;;;;;;;3.00;2.25;;;;;;;-140.79;100.00;63287.88;5045075;28;20526;-57
2022/04/17 10:14:17;;;;;;;3.97;2.22;;;;;;;-140.79;100.00;63287.88;5044974;28;20033;-56
2022/04/17 10:16:44;;;;;;;3.03;2.17;;;;;;;-140.79;100.00;63287.88;5052268;28;20552;-57
2022/04/17 10:19:13;;;;;;;2.88;1.90;;;;;;;-140.79;100.00;63287.88;5081016;28;20805;-57
2022/04/17 10:21:39;;;;;;;3.47;2.20;;;;;;;-140.79;100.00;63287.88;5064893;28;20624;-60
2022/04/17 10:24:05;;;;;;;4.18;2.50;;;;;;;-140.79;100.00;63287.88;5063728;28;20036;-57
2022/04/17 10:26:41;;;;;;;2.90;2.05;;;;;;;-140.79;100.00;63287.88;5063307;28;20051;-56
2022/04/17 10:29:10;;;;;;;4.13;2.22;;;;;;;-140.79;100.00;63287.88;5062757;28;20073;-57
2022/04/17 10:31:54;;;;;;;3.45;2.47;;;;;;;-140.79;100.00;63287.88;5062847;28;20032;-54
2022/04/17 10:34:58;;;;;;;2.72;1.90;;;;;;;-140.79;100.00;63287.88;5061623;28;20396;-55
2022/04/17 10:37:26;;;;;;;3.28;2.25;;;;;;;-140.79;100.00;63287.88;5033794;28;20498;-57
2022/04/17 10:39:53;;;;;;;3.00;2.20;;;;;;;-140.79;100.00;63287.88;5063110;28;20075;-56
2022/04/17 10:42:19;;;;;;;3.63;2.35;;;;;;;-140.79;100.00;63287.88;5028447;28;20493;-57
2022/04/17 10:45:01;;;;;;;3.28;2.00;;;;;;;-140.79;100.00;63287.88;5044044;28;20071;-54
2022/04/17 10:47:29;;;;;;;3.38;2.28;;;;;;;-140.79;100.00;63287.88;5043580;28;20090;-57
2022/04/17 10:49:56;;;;;;;3.35;2.13;;;;;;;-140.79;100.00;63287.88;5043366;28;20021;-55
2022/04/17 10:52:32;;;;;;;3.28;2.00;;;;;;;-140.79;100.00;63287.88;5044034;28;20121;-58
2022/04/17 10:55:27;;;;;;;2.88;1.95;;;;;;;-140.79;100.00;63287.88;5044094;28;20543;-57
2022/04/17 10:57:52;;;;;;;2.72;2.08;;;;;;;-140.79;100.00;63287.88;5066482;28;20045;-57
2022/04/17 11:00:28;;;;;;;3.30;2.30;;;;;;;-140.79;100.00;63287.88;5043119;28;20037;-59
2022/04/17 11:02:55;;;;;;;3.83;2.15;;;;;;;-140.79;100.00;63287.88;5043803;28;20491;-61
2022/04/17 11:06:08;;;;;;;3.45;1.88;;;;;;;-140.79;100.00;63287.88;5040900;28;20036;-56
2022/04/17 11:08:24;;;;;;;3.45;2.15;;;;;;;-140.79;100.00;63287.88;5063412;28;20601;-56
2022/04/17 11:10:53;;;;;;;3.20;2.25;;;;;;;-140.79;100.00;63287.88;5060693;28;20103;-56
2022/04/17 11:13:18;;;;;;;2.97;1.90;;;;;;;-140.79;100.00;63287.88;5060857;28;20024;-57
2022/04/17 11:15:57;;;;;;;3.10;2.22;;;;;;;-140.79;100.00;63287.88;5061629;28;20040;-57
2022/04/17 11:18:28;;;;;;;3.15;1.98;;;;;;;-140.79;100.00;63287.88;5035620;28;20029;-57
2022/04/17 11:20:55;;;;;;;3.17;2.00;;;;;;;-140.79;100.00;63287.88;5044466;28;20116;-57
2022/04/17 11:23:48;;;;;;;3.55;2.05;;;;;;;-140.79;100.00;63287.88;5044497;28;20037;-57